Holcomb, Kansas
Current Conditions -  °F | °C
As of 5:54 AM on Wednesday 28 Jan 2015 (Local Time) from KGCK Reporting Station
Clear Clear  
Wind Chill: 30°   Ceiling: Unl
Heat Index: 36°   Visibility: 10mi
Dew Point: 32°   Wind: 7mph
Humidity: 86%   Direction: 240°WSW
Pressure: 29.86"   Gusts: NA
Location:  37.99°N, 100.99°W
Report Text: KGCK 281154Z AUTO 24006KT 10SM CLR 02/00 A2986 RMK AO2 SLP107 T00220000 10078 20022 55011
Loading
Personal Weather Stations






























Interactive Weather Map New forecast layout! Learn more

10-Day Weather Forecast

Advertisements
Track Severe Weather on mobile